Campbell Aaf (Fort Campbell) Information

FAA: HOP - ICAO: KHOP

Campbell Aaf (Fort Campbell) (Airport) Location

State Kentucky
County Christian
City Fort Campbell/Hopkinsville
Campbell Aaf (Fort Campbell) (Airport) is 2 miles northwest of Fort Campbell/Hopkinsville, KY.
Latitude 36-40-22.6416N
Longitude 087-29-30.5502W
Elevation 571ft

Campbell Aaf (Fort Campbell) METARs

METAR KHOP 190456Z AUTO 30005KT 10SM CLR 23/22 A2981 RMK AO2 SLP092 T02250215
Altimeter 29.81"
Temperature 22.5°C (72.5°F)
Wind 300° at 5KT
Clouds Skies are clear.
Visibility 10.0mi
Time observed: 2022-05-19T04:56:00Z

Campbell Aaf (Fort Campbell) (Airport) Details

Status Operational
Activation N/A
Ownership Military - Army
Usage Private
Chart ST LOUIS
ATC on-site Yes
Beacon schedule sunset-sunrise
Beacon color split clear green

Campbell Aaf (Fort Campbell) (Airport) Contacts

Owner US ARMY ATCA-ASO
Owner address 9325 GUNSTON ROAD, FT BELVOIR, VA 22060
Owner phone 502-798-7146
Manager ROGER LAWSON
Manager address 1828 KITTY HAWK DRIVE, ELIZABETHTOWN, KY 42701
Manager phone 270-737-8388

Campbell Aaf (Fort Campbell) Radio Frequencies

Campbell Aaf (Fort Campbell) (Airport) Radio Frequencies

UNICOM N/A
Common traffic advisory frequency (CTAF) 122.95